Accueil
METAR-TAF:

METAR-TAF

Aéroports :

Baldwin_County_Airport

Milledgeville, Géorgie, États-Unis

latitude: 33-09-15N, longitude: 083-14-26W, altitude: 117 m

Observation

Le bulletin a été fait il y a 29 minutes, à 21:35 UTC
Vent 10 kt de ouest/nord-ouest avec des rafales jusqu'à 20 kt
Température 14°C
Humidité 36%
Pression 1018 hPa
Visibilité: 16.1 km
Ciel couvert à une hauteur de 8500 ft

METAR: KMLJ 282135Z AUTO 29010G20KT 10SM OVC085 14/M01 A3006 RMK AO2

Heure: 17:04 (22:04 UTC)


TAF: absent

Observations et prévisions météorologiques de plus de 4000 aéroports (messages METAR et TAF).

Les stations disponibles sont représentées par des disques jaunes et rouges sur la carte.

Passer la souris dessus pour voir le nom de la station.

Cliquer dessus pour voir les observations et prévisions météorologiques.

Pour changer de carte: cliquez sur les boutons verts avec une croix noire pour zoomer, sur le bouton vert avec un tiret pour effectuer un zoom arrière, ou sur les flèches vertes pour les cartes adjacentes.


METAR-TAF: